createdAt,value
2023-09-18T00:01:56.309Z,100590.73
2023-09-18T00:04:24.182Z,100585.11
2023-09-18T00:06:51.927Z,100586.19
2023-09-18T00:09:20.054Z,100584.86
2023-09-18T00:11:49.086Z,100587.27
2023-09-18T00:14:17.114Z,100586.23
2023-09-18T00:16:58.007Z,100586.56
2023-09-18T00:19:26.938Z,100589.92
2023-09-18T00:21:55.590Z,100586.96
2023-09-18T00:24:23.752Z,100580.15
2023-09-18T00:26:53.972Z,100585.16
2023-09-18T00:29:22.224Z,100587.84
2023-09-18T00:31:51.159Z,100587.05
2023-09-18T00:34:19.052Z,100587.86
2023-09-18T00:36:46.764Z,100584.65
2023-09-18T00:39:15.621Z,100586.66
2023-09-18T00:41:43.973Z,100591.80
2023-09-18T00:44:11.764Z,100589.83
2023-09-18T00:46:39.433Z,100586.42
2023-09-18T00:49:07.528Z,100589.14
2023-09-18T00:51:35.665Z,100586.91
2023-09-18T00:54:03.591Z,100587.04
2023-09-18T00:56:31.987Z,100586.37
2023-09-18T00:59:01.041Z,100588.75
2023-09-18T01:01:28.851Z,100586.96
2023-09-18T01:03:57.563Z,100581.91
2023-09-18T01:06:28.986Z,100581.02
2023-09-18T01:08:56.790Z,100579.12
2023-09-18T01:11:37.422Z,100577.02
2023-09-18T01:14:15.572Z,100578.42
2023-09-18T01:16:58.151Z,100579.30
2023-09-18T01:19:37.787Z,100581.15
2023-09-18T01:36:09.663Z,100582.45
2023-09-18T01:38:38.059Z,100583.52
2023-09-18T01:41:05.857Z,100586.52
2023-09-18T01:43:33.958Z,100586.16
2023-09-18T01:46:01.649Z,100576.75
2023-09-18T01:48:30.332Z,100576.25
2023-09-18T01:50:58.122Z,100577.86
2023-09-18T01:53:27.660Z,100574.31
2023-09-18T01:55:55.451Z,100575.55
2023-09-18T01:58:23.213Z,100578.36
2023-09-18T02:00:51.366Z,100576.86
2023-09-18T02:03:41.398Z,100576.86
2023-09-18T02:06:09.888Z,100576.08
2023-09-18T02:08:38.050Z,100578.02
2023-09-18T02:11:05.897Z,100575.77
2023-09-18T02:13:33.680Z,100574.05
2023-09-18T02:16:01.346Z,100570.91
2023-09-18T02:18:30.437Z,100567.93
2023-09-18T02:20:58.382Z,100567.17
2023-09-18T02:23:26.195Z,100562.52
2023-09-18T02:26:00.389Z,100560.15
2023-09-18T02:28:28.224Z,100560.82
2023-09-18T02:30:55.868Z,100558.27
2023-09-18T02:33:23.607Z,100557.48
2023-09-18T02:35:51.707Z,100558.22
2023-09-18T02:38:19.789Z,100555.90
2023-09-18T02:52:23.832Z,100557.46
2023-09-18T02:54:52.031Z,100554.56
2023-09-18T02:57:20.174Z,100552.37
2023-09-18T02:59:48.040Z,100545.95
2023-09-18T03:02:16.128Z,100549.02
2023-09-18T03:04:43.899Z,100547.41
2023-09-18T03:07:14.578Z,100547.96
2023-09-18T03:09:42.415Z,100547.18
2023-09-18T03:12:10.308Z,100548.13
2023-09-18T03:14:38.048Z,100554.98
2023-09-18T03:17:06.077Z,100552.76
2023-09-18T03:19:33.813Z,100550.35
2023-09-18T03:22:02.833Z,100551.09
2023-09-18T03:24:31.582Z,100550.15
2023-09-18T03:26:59.559Z,100547.55
2023-09-18T03:29:28.327Z,100546.19
2023-09-18T03:31:59.176Z,100552.29
2023-09-18T03:34:28.222Z,100549.36
2023-09-18T03:36:56.801Z,100552.91
2023-09-18T03:39:24.712Z,100551.78
2023-09-18T03:41:52.404Z,100555.86
2023-09-18T03:44:20.101Z,100555.13
2023-09-18T03:46:48.035Z,100553.04
2023-09-18T03:49:15.762Z,100554.96
2023-09-18T04:03:01.477Z,100547.83
2023-09-18T04:05:30.089Z,100543.42
2023-09-18T04:08:00.243Z,100542.43
2023-09-18T04:10:28.292Z,100543.39
2023-09-18T04:12:55.991Z,100544.48
2023-09-18T04:15:24.178Z,100540.89
2023-09-18T04:17:51.904Z,100538.27
2023-09-18T04:20:20.053Z,100538.59
2023-09-18T04:22:51.033Z,100535.42
2023-09-18T04:25:20.850Z,100530.73
2023-09-18T04:27:51.678Z,100532.44
2023-09-18T04:30:20.949Z,100531.34
2023-09-18T04:32:49.235Z,100529.29
2023-09-18T04:35:17.154Z,100527.41
2023-09-18T04:37:44.928Z,100526.75
2023-09-18T04:40:13.348Z,100530.79
2023-09-18T04:42:41.995Z,100534.58
2023-09-18T04:45:10.417Z,100532.11
2023-09-18T04:47:38.757Z,100530.16
2023-09-18T04:50:10.127Z,100526.66
2023-09-18T04:52:44.900Z,100525.05
2023-09-18T04:55:15.426Z,100521.45
2023-09-18T04:57:43.164Z,100521.70
2023-09-18T05:00:18.127Z,100515.13
2023-09-18T05:02:46.674Z,100515.33
2023-09-18T05:05:15.395Z,100516.20
2023-09-18T05:07:43.974Z,100516.08
2023-09-18T05:10:12.155Z,100510.23
2023-09-18T05:12:41.435Z,100512.27
2023-09-18T05:15:11.003Z,100514.73
2023-09-18T05:17:43.745Z,100512.27
2023-09-18T05:20:17.985Z,100506.39
2023-09-18T05:22:46.728Z,100507.88
2023-09-18T05:25:18.119Z,100508.54
2023-09-18T05:27:46.423Z,100506.42
2023-09-18T05:30:16.889Z,100504.25
2023-09-18T05:32:46.602Z,100497.61
2023-09-18T05:35:15.431Z,100495.35
2023-09-18T05:37:43.309Z,100491.50
2023-09-18T05:40:13.807Z,100491.52
2023-09-18T05:42:44.594Z,100491.79
2023-09-18T05:45:14.279Z,100489.77
2023-09-18T05:47:43.753Z,100483.97
2023-09-18T05:50:17.365Z,100484.09
2023-09-18T05:52:46.575Z,100485.80
2023-09-18T05:55:15.949Z,100483.63
2023-09-18T05:57:43.716Z,100481.21
2023-09-18T06:00:16.636Z,100478.36
2023-09-18T06:02:45.595Z,100479.61
2023-09-18T06:05:13.821Z,100482.48
2023-09-18T06:07:41.822Z,100481.00
2023-09-18T06:10:10.355Z,100483.70
2023-09-18T06:12:40.542Z,100485.33
2023-09-18T06:15:12.853Z,100479.64
2023-09-18T06:17:44.133Z,100479.18
2023-09-18T06:20:17.120Z,100484.66
2023-09-18T06:22:45.276Z,100484.45
2023-09-18T06:25:14.399Z,100484.61
2023-09-18T06:27:42.952Z,100482.20
2023-09-18T06:30:11.128Z,100480.30
2023-09-18T06:32:39.212Z,100481.48
2023-09-18T06:35:07.550Z,100480.13
2023-09-18T06:37:35.638Z,100475.16
2023-09-18T06:40:05.174Z,100469.04
2023-09-18T06:42:34.087Z,100468.95
2023-09-18T06:45:02.992Z,100471.23
2023-09-18T06:47:31.261Z,100468.16
2023-09-18T06:50:01.125Z,100462.89
2023-09-18T06:52:29.349Z,100464.88
2023-09-18T06:54:59.044Z,100468.63
2023-09-18T06:57:27.157Z,100464.84
2023-09-18T06:59:55.444Z,100465.15
2023-09-18T07:02:23.297Z,100464.88
2023-09-18T07:04:51.176Z,100462.80
2023-09-18T07:07:25.938Z,100463.42
2023-09-18T07:10:04.556Z,100463.20
2023-09-18T07:12:34.179Z,100458.00
2023-09-18T07:15:05.165Z,100455.64
2023-09-18T07:17:34.962Z,100456.95
2023-09-18T07:20:10.926Z,100455.48
2023-09-18T07:36:47.507Z,100464.02
2023-09-18T07:39:14.735Z,100461.65
2023-09-18T07:41:41.444Z,100463.52
2023-09-18T07:44:07.806Z,100465.67
2023-09-18T07:46:34.496Z,100460.52
2023-09-18T07:49:01.126Z,100461.41
2023-09-18T07:51:28.508Z,100461.35
2023-09-18T07:53:55.136Z,100459.23
2023-09-18T07:56:21.930Z,100460.97
2023-09-18T07:58:48.447Z,100460.25
2023-09-18T08:01:16.986Z,100458.90
2023-09-18T08:03:43.545Z,100461.48
2023-09-18T08:06:12.279Z,100457.30
2023-09-18T08:08:40.029Z,100451.52
2023-09-18T08:11:09.575Z,100446.95
2023-09-18T08:13:38.924Z,100447.04
2023-09-18T08:16:07.325Z,100445.69
2023-09-18T08:18:34.009Z,100440.10
2023-09-18T08:21:00.851Z,100439.58
2023-09-18T08:23:27.925Z,100439.06
2023-09-18T08:25:57.867Z,100435.36
2023-09-18T08:28:24.244Z,100430.59
2023-09-18T08:30:50.647Z,100429.61
2023-09-18T08:33:17.203Z,100427.20
2023-09-18T08:35:45.198Z,100424.85
2023-09-18T08:38:12.684Z,100425.39
2023-09-18T08:40:41.297Z,100423.76
2023-09-18T08:43:08.584Z,100419.33
2023-09-18T08:45:48.122Z,100419.84
2023-09-18T08:48:15.026Z,100417.38
2023-09-18T08:50:43.078Z,100413.66
2023-09-18T08:53:09.446Z,100412.67
2023-09-18T08:55:36.358Z,100409.34
2023-09-18T08:58:02.887Z,100408.37
2023-09-18T09:00:29.554Z,100401.73
2023-09-18T09:02:56.462Z,100396.79
2023-09-18T09:05:23.717Z,100399.27
2023-09-18T09:07:50.930Z,100398.38
2023-09-18T09:10:17.958Z,100397.66
2023-09-18T09:12:54.048Z,100396.99
2023-09-18T09:15:23.697Z,100396.42
2023-09-18T09:17:51.722Z,100394.64
2023-09-18T09:20:19.323Z,100392.52
2023-09-18T09:22:46.068Z,100395.00
2023-09-18T09:25:33.786Z,100392.86
2023-09-18T09:28:03.939Z,100388.72
2023-09-18T09:30:30.574Z,100385.09
2023-09-18T09:32:58.734Z,100382.20
2023-09-18T09:35:28.069Z,100379.20
2023-09-18T09:38:01.067Z,100375.52
2023-09-18T09:40:29.579Z,100371.40
2023-09-18T09:43:04.754Z,100366.23
2023-09-18T09:45:38.606Z,100365.88
2023-09-18T09:48:06.738Z,100360.59
2023-09-18T09:50:48.730Z,100357.08
2023-09-18T09:53:15.623Z,100354.41
2023-09-18T09:55:42.294Z,100352.14
2023-09-18T09:58:11.311Z,100352.64
2023-09-18T10:00:41.176Z,100350.16
2023-09-18T10:03:09.329Z,100347.65
2023-09-18T10:05:38.353Z,100344.18
2023-09-18T10:08:11.630Z,100337.73
2023-09-18T10:10:47.449Z,100335.17
2023-09-18T10:13:19.387Z,100329.52
2023-09-18T10:18:27.327Z,100316.93
2023-09-18T10:21:03.565Z,100310.82
2023-09-18T10:23:59.062Z,100310.94
2023-09-18T10:26:29.387Z,100307.50
2023-09-18T10:29:00.241Z,100303.77
2023-09-18T10:31:28.682Z,100300.90
2023-09-18T10:34:00.978Z,100296.37
2023-09-18T10:36:34.521Z,100292.50
2023-09-18T10:39:02.940Z,100298.71
2023-09-18T10:41:30.123Z,100296.94
2023-09-18T10:43:58.898Z,100293.45
2023-09-18T10:46:26.212Z,100289.73
2023-09-18T10:48:54.509Z,100284.30
2023-09-18T10:51:22.842Z,100281.34
2023-09-18T10:53:52.901Z,100284.27
2023-09-18T10:56:22.459Z,100280.05
2023-09-18T10:59:05.282Z,100277.65
2023-09-18T11:01:32.945Z,100272.02
2023-09-18T11:04:03.669Z,100271.36
2023-09-18T11:06:30.568Z,100265.41
2023-09-18T11:09:04.438Z,100260.46
2023-09-18T11:11:33.297Z,100255.00
2023-09-18T11:14:01.866Z,100259.20
2023-09-18T11:16:28.558Z,100259.05
2023-09-18T11:19:01.401Z,100252.05
2023-09-18T11:21:29.808Z,100247.02
2023-09-18T11:23:59.817Z,100248.30
2023-09-18T11:26:36.782Z,100245.20
2023-09-18T11:29:09.808Z,100242.45
2023-09-18T11:31:54.200Z,100241.67
2023-09-18T11:34:22.341Z,100236.02
2023-09-18T11:36:50.317Z,100239.41
2023-09-18T11:39:38.638Z,100238.05
2023-09-18T11:42:17.419Z,100238.93
2023-09-18T11:44:46.870Z,100232.42
2023-09-18T11:47:21.881Z,100229.73
2023-09-18T11:49:54.819Z,100228.84
2023-09-18T11:52:23.226Z,100230.21
2023-09-18T11:54:50.509Z,100223.05
2023-09-18T11:57:18.954Z,100222.63
2023-09-18T11:59:46.798Z,100214.10
2023-09-18T12:02:28.481Z,100209.02
2023-09-18T12:04:55.490Z,100205.41
2023-09-18T12:07:21.969Z,100208.44
2023-09-18T12:09:48.373Z,100205.79
2023-09-18T12:12:16.780Z,100205.02
2023-09-18T12:14:43.169Z,100203.06
2023-09-18T12:17:09.526Z,100201.31
2023-09-18T12:19:35.890Z,100197.51
2023-09-18T12:22:02.742Z,100194.57
2023-09-18T12:24:29.313Z,100195.04
2023-09-18T12:26:59.463Z,100188.02
2023-09-18T12:29:25.883Z,100185.81
2023-09-18T12:31:53.035Z,100179.92
2023-09-18T12:34:23.996Z,100181.08
2023-09-18T12:36:51.676Z,100181.52
2023-09-18T12:39:21.611Z,100175.81
2023-09-18T12:41:48.769Z,100172.69
2023-09-18T12:44:17.043Z,100172.54
2023-09-18T12:46:44.839Z,100172.95
2023-09-18T12:49:21.759Z,100174.58
2023-09-18T12:52:09.019Z,100164.23
2023-09-18T12:54:39.219Z,100162.36
2023-09-18T12:57:07.425Z,100164.52
2023-09-18T12:59:36.196Z,100161.70
2023-09-18T13:02:04.846Z,100154.48
2023-09-18T13:04:41.193Z,100150.12
2023-09-18T13:07:15.468Z,100146.50
2023-09-18T13:09:41.845Z,100140.36
2023-09-18T13:12:09.385Z,100134.02
2023-09-18T13:14:58.741Z,100128.52
2023-09-18T13:17:25.434Z,100121.16
2023-09-18T13:19:51.786Z,100117.16
2023-09-18T13:22:27.456Z,100113.19
2023-09-18T13:24:57.644Z,100111.02
2023-09-18T13:27:24.638Z,100108.41
2023-09-18T13:29:54.513Z,100107.13
2023-09-18T13:32:21.691Z,100102.31
2023-09-18T13:34:48.731Z,100099.45
2023-09-18T13:37:17.726Z,100093.88
2023-09-18T13:39:44.078Z,100091.71
2023-09-18T13:42:10.387Z,100084.13
2023-09-18T13:44:37.464Z,100079.58
2023-09-18T13:47:04.437Z,100074.95
2023-09-18T13:49:30.894Z,100074.05
2023-09-18T13:51:57.262Z,100071.80
2023-09-18T13:54:23.608Z,100078.19
2023-09-18T13:56:49.944Z,100075.73
2023-09-18T13:59:16.310Z,100073.62
2023-09-18T14:01:42.615Z,100075.95
2023-09-18T14:04:09.318Z,100068.60
2023-09-18T14:06:35.911Z,100066.40
2023-09-18T14:09:06.033Z,100065.04
2023-09-18T14:11:32.339Z,100060.52
2023-09-18T14:13:58.615Z,100055.82
2023-09-18T14:16:25.597Z,100052.59
2023-09-18T14:18:54.444Z,100049.16
2023-09-18T14:21:20.909Z,100047.92
2023-09-18T14:23:47.656Z,100047.06
2023-09-18T14:28:47.448Z,100043.77
2023-09-18T14:31:13.815Z,100039.69
2023-09-18T14:33:41.176Z,100037.11
2023-09-18T14:36:07.672Z,100036.28
2023-09-18T14:38:33.981Z,100038.50
2023-09-18T14:41:03.293Z,100042.45
2023-09-18T14:43:30.249Z,100039.73
2023-09-18T14:45:57.505Z,100036.98
2023-09-18T14:48:24.511Z,100030.92
2023-09-18T14:50:55.020Z,100031.05
2023-09-18T14:53:21.731Z,100035.45
2023-09-18T14:55:49.343Z,100029.75
2023-09-18T14:58:15.675Z,100028.95
2023-09-18T15:00:42.590Z,100028.19
2023-09-18T15:03:09.089Z,100026.47
2023-09-18T15:05:35.908Z,100025.47
2023-09-18T15:08:02.503Z,100023.91
2023-09-18T15:10:29.102Z,100021.33
2023-09-18T15:12:55.564Z,100022.60
2023-09-18T15:15:22.169Z,100025.08
2023-09-18T15:17:49.308Z,100023.79
2023-09-18T15:20:17.806Z,100020.89
2023-09-18T15:22:44.647Z,100020.73
2023-09-18T15:25:11.279Z,100015.31
2023-09-18T15:27:37.877Z,100011.75
2023-09-18T15:30:07.366Z,100009.40
2023-09-18T15:32:54.073Z,100010.17
2023-09-18T15:35:24.740Z,100005.42
2023-09-18T15:37:52.020Z,100005.54
2023-09-18T15:40:21.099Z,100001.17
2023-09-18T15:42:49.973Z,99995.54
2023-09-18T15:45:16.330Z,99994.25
2023-09-18T15:47:42.691Z,99995.27
2023-09-18T15:50:10.558Z,99992.23
2023-09-18T15:52:37.706Z,99993.06
2023-09-18T15:55:05.947Z,99996.97
2023-09-18T15:57:36.932Z,99996.52
2023-09-18T16:00:05.252Z,99995.15
2023-09-18T16:02:39.132Z,99995.22
2023-09-18T16:05:06.400Z,99993.27
2023-09-18T16:07:39.939Z,99992.06
2023-09-18T16:10:07.820Z,99990.77
2023-09-18T16:12:35.294Z,99986.07
2023-09-18T16:15:03.406Z,99981.90
2023-09-18T16:17:29.937Z,99980.80
2023-09-18T16:19:58.336Z,99980.55
2023-09-18T16:22:28.260Z,99980.19
2023-09-18T16:24:54.745Z,99981.27
2023-09-18T16:27:21.066Z,99978.86
2023-09-18T16:29:47.462Z,99978.05
2023-09-18T16:32:13.764Z,99976.73
2023-09-18T16:34:40.322Z,99972.54
2023-09-18T16:37:06.636Z,99970.09
2023-09-18T16:39:32.924Z,99967.69
2023-09-18T16:41:59.384Z,99968.21
2023-09-18T16:44:25.840Z,99969.01
2023-09-18T16:46:52.408Z,99966.95
2023-09-18T16:49:22.705Z,99962.58
2023-09-18T16:51:50.393Z,99958.08
2023-09-18T16:54:19.097Z,99955.27
2023-09-18T16:56:45.933Z,99956.41
2023-09-18T16:59:13.048Z,99952.35
2023-09-18T17:01:39.701Z,99947.28
2023-09-18T17:04:07.101Z,99946.74
2023-09-18T17:06:35.427Z,99946.11
2023-09-18T17:09:08.713Z,99951.20
2023-09-18T17:11:36.080Z,99946.64
2023-09-18T17:14:02.489Z,99943.70
2023-09-18T17:16:31.434Z,99942.73
2023-09-18T17:18:57.925Z,99942.87
2023-09-18T17:21:25.279Z,99943.45
2023-09-18T17:23:52.092Z,99944.02
2023-09-18T17:26:18.538Z,99949.39
2023-09-18T17:28:45.499Z,99951.69
2023-09-18T17:31:12.163Z,99954.09
2023-09-18T17:33:39.197Z,99959.94
2023-09-18T17:36:08.591Z,99952.45
2023-09-18T17:38:36.271Z,99954.58
2023-09-18T17:41:04.521Z,99954.13
2023-09-18T17:43:32.427Z,99954.84
2023-09-18T17:45:58.862Z,99954.64
2023-09-18T17:48:25.395Z,99955.17
2023-09-18T17:50:51.897Z,99955.07
2023-09-18T17:53:18.449Z,99958.25
2023-09-18T17:55:45.057Z,99958.30
2023-09-18T17:58:11.541Z,99956.48
2023-09-18T18:00:38.629Z,99951.62
2023-09-18T18:03:05.419Z,99953.92
2023-09-18T18:05:32.216Z,99955.05
2023-09-18T18:07:59.268Z,99955.05
2023-09-18T18:10:25.644Z,99960.67
2023-09-18T18:12:52.044Z,99959.75
2023-09-18T18:15:18.345Z,99956.66
2023-09-18T18:17:45.069Z,99957.63
2023-09-18T18:20:13.136Z,99956.73
2023-09-18T18:22:40.516Z,99957.26
2023-09-18T18:25:08.624Z,99953.27
2023-09-18T18:27:35.141Z,99949.27
2023-09-18T18:30:02.120Z,99944.52
2023-09-18T18:32:28.707Z,99942.52
2023-09-18T18:34:56.176Z,99943.64
2023-09-18T18:37:22.971Z,99940.30
2023-09-18T18:39:49.503Z,99942.94
2023-09-18T18:42:15.792Z,99940.98
2023-09-18T18:44:42.203Z,99939.89
2023-09-18T18:47:08.640Z,99939.65
2023-09-18T18:49:35.019Z,99939.64
2023-09-18T18:52:03.431Z,99941.42
2023-09-18T18:54:32.250Z,99942.28
2023-09-18T18:56:58.690Z,99938.92
2023-09-18T18:59:26.236Z,99931.58
2023-09-18T19:01:55.903Z,99934.05
2023-09-18T19:04:22.842Z,99933.73
2023-09-18T19:06:49.202Z,99937.42
2023-09-18T19:09:17.929Z,99936.95
2023-09-18T19:11:44.269Z,99936.89
2023-09-18T19:14:10.653Z,99932.19
2023-09-18T19:16:37.069Z,99932.33
2023-09-18T19:19:04.204Z,99930.34
2023-09-18T19:21:30.797Z,99930.34
2023-09-18T19:23:57.103Z,99925.63
2023-09-18T19:26:23.490Z,99924.83
2023-09-18T19:28:50.038Z,99922.44
2023-09-18T19:31:22.419Z,99919.83
2023-09-18T19:33:49.030Z,99917.97
2023-09-18T19:36:17.648Z,99913.42
2023-09-18T19:38:44.689Z,99909.70
2023-09-18T19:41:11.859Z,99907.46
2023-09-18T19:43:38.370Z,99905.82
2023-09-18T19:46:04.989Z,99904.22
2023-09-18T19:48:31.751Z,99900.34
2023-09-18T19:50:59.986Z,99901.46
2023-09-18T19:53:27.249Z,99899.41
2023-09-18T19:55:53.918Z,99899.33
2023-09-18T19:58:20.226Z,99894.52
2023-09-18T20:00:46.928Z,99896.40
2023-09-18T20:03:13.308Z,99890.20
2023-09-18T20:05:39.892Z,99892.05
2023-09-18T20:08:06.549Z,99893.06
2023-09-18T20:10:33.478Z,99895.61
2023-09-18T20:13:01.162Z,99884.98
2023-09-18T20:15:30.926Z,99889.55
2023-09-18T20:17:57.476Z,99888.45
2023-09-18T20:20:26.552Z,99888.92
2023-09-18T20:22:52.856Z,99884.58
2023-09-18T20:25:19.341Z,99886.34
2023-09-18T20:27:45.752Z,99883.14
2023-09-18T20:30:16.378Z,99878.58
2023-09-18T20:32:44.416Z,99877.16
2023-09-18T20:35:12.333Z,99875.63
2023-09-18T20:37:38.640Z,99877.36
2023-09-18T20:40:06.913Z,99876.89
2023-09-18T20:42:34.126Z,99875.35
2023-09-18T20:45:00.787Z,99873.33
2023-09-18T20:47:28.583Z,99873.02
2023-09-18T20:49:56.366Z,99876.06
2023-09-18T20:52:23.965Z,99873.35
2023-09-18T20:54:51.690Z,99870.21
2023-09-18T20:57:18.224Z,99864.30
2023-09-18T20:59:45.597Z,99864.17
2023-09-18T21:02:13.775Z,99861.26
2023-09-18T21:04:40.607Z,99861.77
2023-09-18T21:07:07.226Z,99862.46
2023-09-18T21:09:33.921Z,99860.06
2023-09-18T21:12:03.282Z,99860.59
2023-09-18T21:14:30.966Z,99863.20
2023-09-18T21:16:57.400Z,99858.06
2023-09-18T21:19:23.783Z,99854.81
2023-09-18T21:21:51.451Z,99855.33
2023-09-18T21:24:18.112Z,99853.27
2023-09-18T21:26:45.433Z,99852.46
2023-09-18T21:29:11.844Z,99854.28
2023-09-18T21:31:38.994Z,99853.55
2023-09-18T21:34:05.438Z,99854.84
2023-09-18T21:36:31.881Z,99853.04
2023-09-18T21:38:58.238Z,99851.50
2023-09-18T21:41:24.562Z,99855.31
2023-09-18T21:43:50.878Z,99853.01
2023-09-18T21:46:17.630Z,99851.57
2023-09-18T21:48:44.680Z,99847.45
2023-09-18T21:51:16.243Z,99848.45
2023-09-18T21:53:43.444Z,99845.34
2023-09-18T21:56:10.084Z,99839.16
2023-09-18T21:58:36.567Z,99838.86
2023-09-18T22:01:04.334Z,99835.59
2023-09-18T22:03:36.607Z,99831.74
2023-09-18T22:06:05.068Z,99828.49
2023-09-18T22:08:32.309Z,99833.10
2023-09-18T22:10:58.706Z,99829.36
2023-09-18T22:13:25.088Z,99824.27
2023-09-18T22:15:51.444Z,99821.60
2023-09-18T22:18:17.985Z,99821.09
2023-09-18T22:20:44.496Z,99815.58
2023-09-18T22:23:13.700Z,99814.60
2023-09-18T22:25:41.152Z,99812.60
2023-09-18T22:28:08.207Z,99808.17
2023-09-18T22:30:34.842Z,99808.66
2023-09-18T22:33:03.171Z,99809.49
2023-09-18T22:35:32.739Z,99807.83
2023-09-18T22:38:20.897Z,99804.67
2023-09-18T22:40:49.466Z,99807.73
2023-09-18T22:43:53.697Z,99805.37
2023-09-18T22:46:58.774Z,99801.37
2023-09-18T22:50:05.272Z,99800.36
2023-09-18T22:52:45.137Z,99793.83
2023-09-18T22:55:18.083Z,99789.83
2023-09-18T22:57:47.983Z,99784.64
2023-09-18T23:00:17.391Z,99780.30
2023-09-18T23:02:45.212Z,99779.37
2023-09-18T23:05:14.811Z,99782.55
2023-09-18T23:07:43.897Z,99778.24
2023-09-18T23:10:12.813Z,99777.40
2023-09-18T23:12:39.115Z,99777.70
2023-09-18T23:15:11.720Z,99775.28
2023-09-18T23:17:42.212Z,99772.09
2023-09-18T23:20:12.160Z,99768.06
2023-09-18T23:22:41.003Z,99764.00
2023-09-18T23:25:12.473Z,99763.44
2023-09-18T23:27:44.535Z,99758.59
2023-09-18T23:30:17.743Z,99760.45
2023-09-18T23:32:55.912Z,99757.70
2023-09-18T23:35:22.244Z,99756.70
2023-09-18T23:37:59.162Z,99752.88
2023-09-18T23:40:32.029Z,99754.65
2023-09-18T23:43:04.335Z,99752.05
2023-09-18T23:45:38.387Z,99751.66
2023-09-18T23:48:19.950Z,99746.14
2023-09-18T23:50:51.616Z,99744.89
2023-09-18T23:53:20.721Z,99744.71
2023-09-18T23:55:49.896Z,99742.91
2023-09-18T23:58:22.434Z,99741.22
